AAA328 YSSY-YMML
Flight info
| Callsign | AAA328 |
|---|---|
| Flight time | 1h 4m |
| Altitude | 34000 |
| Route | TESAT H65 LEECE Q29 ML |
| Aircraft | A21N/M-SDE2E3FGHIJ1RWXY/LB1 |
Departure
| Time | 2026-04-22 06:16 |
|---|---|
| Airport | Sydney Kingsford Smith International Airport (YSSY) |
Arrival
| Time | 2026-04-22 07:21 |
|---|---|
| Airport | Melbourne Airport (YMML) |
| Time | Latitude | Longitude | Altitude | Speed | Heading |
|---|---|---|---|---|---|
| 2026-04-22 05:55 | -33.93472 | 151.17918 | 36 ft | 0 kts | 100° |
| 2026-04-22 06:06 | -33.93471 | 151.17910 | 35 ft | 2 kts | 99° |
| 2026-04-22 06:06 | -33.93469 | 151.17886 | 35 ft | 3 kts | 95° |
| 2026-04-22 06:06 | -33.93467 | 151.17862 | 35 ft | 3 kts | 105° |
| 2026-04-22 06:06 | -33.93462 | 151.17847 | 35 ft | 1 kts | 119° |
| 2026-04-22 06:07 | -33.93465 | 151.17851 | 35 ft | 2 kts | 134° |
| 2026-04-22 06:07 | -33.93481 | 151.17855 | 35 ft | 3 kts | 177° |
| 2026-04-22 06:07 | -33.93500 | 151.17852 | 35 ft | 3 kts | 192° |
| 2026-04-22 06:07 | -33.93520 | 151.17846 | 35 ft | 3 kts | 195° |
| 2026-04-22 06:08 | -33.93537 | 151.17840 | 35 ft | 3 kts | 195° |
| 2026-04-22 06:08 | -33.93556 | 151.17834 | 35 ft | 3 kts | 194° |
| 2026-04-22 06:08 | -33.93576 | 151.17828 | 35 ft | 3 kts | 193° |
| 2026-04-22 06:08 | -33.93596 | 151.17823 | 35 ft | 3 kts | 191° |
| 2026-04-22 06:09 | -33.93606 | 151.17821 | 35 ft | 0 kts | 190° |
| 2026-04-22 06:11 | -33.93618 | 151.17819 | 35 ft | 3 kts | 190° |
| 2026-04-22 06:11 | -33.93645 | 151.17802 | 35 ft | 6 kts | 234° |
| 2026-04-22 06:12 | -33.93652 | 151.17745 | 35 ft | 8 kts | 280° |
| 2026-04-22 06:12 | -33.93642 | 151.17668 | 35 ft | 10 kts | 279° |
| 2026-04-22 06:12 | -33.93608 | 151.17617 | 35 ft | 0 kts | 2° |
| 2026-04-22 06:12 | -33.93603 | 151.17617 | 35 ft | 4 kts | 353° |
| 2026-04-22 06:13 | -33.93548 | 151.17601 | 35 ft | 10 kts | 348° |
| 2026-04-22 06:13 | -33.93473 | 151.17584 | 35 ft | 12 kts | 357° |
| 2026-04-22 06:13 | -33.93380 | 151.17592 | 35 ft | 15 kts | 350° |
| 2026-04-22 06:13 | -33.93275 | 151.17565 | 35 ft | 16 kts | 348° |
| 2026-04-22 06:14 | -33.93159 | 151.17535 | 35 ft | 18 kts | 348° |
| 2026-04-22 06:14 | -33.93067 | 151.17528 | 36 ft | 13 kts | 30° |
| 2026-04-22 06:14 | -33.92990 | 151.17495 | 36 ft | 15 kts | 290° |
| 2026-04-22 06:14 | -33.92973 | 151.17402 | 36 ft | 8 kts | 281° |
| 2026-04-22 06:15 | -33.92961 | 151.17329 | 36 ft | 10 kts | 281° |
| 2026-04-22 06:15 | -33.92958 | 151.17241 | 36 ft | 12 kts | 257° |
| 2026-04-22 06:15 | -33.93023 | 151.17183 | 36 ft | 13 kts | 180° |
| 2026-04-22 06:15 | -33.93139 | 151.17210 | 36 ft | 33 kts | 169° |
| 2026-04-22 06:16 | -33.93600 | 151.17327 | 32 ft | 97 kts | 167° |
| 2026-04-22 06:16 | -33.94433 | 151.17548 | 35 ft | 149 kts | 168° |
| 2026-04-22 06:16 | -33.95506 | 151.17817 | 418 ft | 158 kts | 167° |
| 2026-04-22 06:16 | -33.96607 | 151.18054 | 953 ft | 166 kts | 177° |
| 2026-04-22 06:17 | -33.97759 | 151.17964 | 1583 ft | 165 kts | 181° |
| 2026-04-22 06:17 | -33.98953 | 151.17846 | 2067 ft | 177 kts | 182° |
| 2026-04-22 06:17 | -34.00217 | 151.17728 | 2579 ft | 192 kts | 182° |
| 2026-04-22 06:17 | -34.01630 | 151.17602 | 2995 ft | 217 kts | 182° |
| 2026-04-22 06:18 | -34.03237 | 151.17661 | 3491 ft | 240 kts | 169° |
| 2026-04-22 06:18 | -34.04878 | 151.18165 | 4148 ft | 251 kts | 164° |
| 2026-04-22 06:18 | -34.06587 | 151.18758 | 5041 ft | 252 kts | 164° |
| 2026-04-22 06:18 | -34.08257 | 151.19333 | 5913 ft | 255 kts | 165° |
| 2026-04-22 06:19 | -34.09986 | 151.19922 | 6711 ft | 260 kts | 165° |
| 2026-04-22 06:19 | -34.11777 | 151.20527 | 7232 ft | 277 kts | 165° |
| 2026-04-22 06:19 | -34.13712 | 151.21173 | 7539 ft | 300 kts | 165° |
| 2026-04-22 06:19 | -34.15804 | 151.21870 | 7814 ft | 322 kts | 165° |
| 2026-04-22 06:20 | -34.18083 | 151.22296 | 8071 ft | 343 kts | 179° |
| 2026-04-22 06:20 | -34.20472 | 151.21721 | 8545 ft | 358 kts | 200° |
| 2026-04-22 06:20 | -34.22594 | 151.20115 | 9255 ft | 366 kts | 219° |
| 2026-04-22 06:20 | -34.24317 | 151.17806 | 10018 ft | 373 kts | 228° |
| 2026-04-22 06:21 | -34.25956 | 151.15367 | 10709 ft | 377 kts | 228° |
| 2026-04-22 06:21 | -34.27633 | 151.12903 | 11382 ft | 381 kts | 227° |
| 2026-04-22 06:21 | -34.29347 | 151.10441 | 12059 ft | 384 kts | 227° |
| 2026-04-22 06:21 | -34.31092 | 151.07966 | 12719 ft | 388 kts | 226° |
| 2026-04-22 06:22 | -34.32853 | 151.05469 | 13362 ft | 392 kts | 226° |
| 2026-04-22 06:22 | -34.34633 | 151.02953 | 13975 ft | 395 kts | 226° |
| 2026-04-22 06:22 | -34.36428 | 151.00417 | 14525 ft | 398 kts | 225° |
| 2026-04-22 06:22 | -34.38373 | 150.98034 | 15068 ft | 398 kts | 218° |
| 2026-04-22 06:23 | -34.40434 | 150.95795 | 15617 ft | 399 kts | 218° |
| 2026-04-22 06:23 | -34.42512 | 150.93551 | 16158 ft | 401 kts | 218° |
| 2026-04-22 06:23 | -34.44593 | 150.91300 | 16675 ft | 403 kts | 218° |
| 2026-04-22 06:23 | -34.46689 | 150.89028 | 17179 ft | 405 kts | 217° |
| 2026-04-22 06:24 | -34.50195 | 150.85221 | 18005 ft | 409 kts | 217° |
| 2026-04-22 06:24 | -34.53046 | 150.82123 | 18632 ft | 412 kts | 217° |
| 2026-04-22 06:24 | -34.55166 | 150.79768 | 19060 ft | 416 kts | 220° |
| 2026-04-22 06:25 | -34.56453 | 150.78034 | 19328 ft | 421 kts | 227° |
| 2026-04-22 06:25 | -34.58811 | 150.74208 | 19895 ft | 424 kts | 229° |
| 2026-04-22 06:25 | -34.60548 | 150.71301 | 20318 ft | 426 kts | 230° |
| 2026-04-22 06:25 | -34.62289 | 150.68391 | 20752 ft | 427 kts | 230° |
| 2026-04-22 06:26 | -34.63449 | 150.66458 | 21042 ft | 428 kts | 230° |
| 2026-04-22 06:26 | -34.65213 | 150.63528 | 21476 ft | 430 kts | 230° |
| 2026-04-22 06:26 | -34.67558 | 150.59626 | 22064 ft | 433 kts | 230° |
| 2026-04-22 06:26 | -34.69333 | 150.56670 | 22506 ft | 435 kts | 230° |
| 2026-04-22 06:27 | -34.71118 | 150.53700 | 22946 ft | 437 kts | 230° |
| 2026-04-22 06:27 | -34.72331 | 150.51682 | 23252 ft | 438 kts | 230° |
| 2026-04-22 06:27 | -34.74719 | 150.47701 | 23835 ft | 441 kts | 230° |
| 2026-04-22 06:27 | -34.76527 | 150.44679 | 24199 ft | 443 kts | 230° |
| 2026-04-22 06:28 | -34.77733 | 150.42666 | 24458 ft | 444 kts | 230° |
| 2026-04-22 06:28 | -34.79555 | 150.39620 | 24842 ft | 446 kts | 230° |
| 2026-04-22 06:28 | -34.81384 | 150.36561 | 25207 ft | 447 kts | 230° |
| 2026-04-22 06:28 | -34.83214 | 150.33493 | 25577 ft | 448 kts | 231° |
| 2026-04-22 06:29 | -34.85046 | 150.30414 | 25923 ft | 450 kts | 231° |
| 2026-04-22 06:29 | -34.86889 | 150.27318 | 26260 ft | 451 kts | 231° |
| 2026-04-22 06:29 | -34.88721 | 150.24239 | 26702 ft | 449 kts | 231° |
| 2026-04-22 06:29 | -34.91146 | 150.20169 | 27316 ft | 446 kts | 231° |
| 2026-04-22 06:30 | -34.92323 | 150.18192 | 27609 ft | 444 kts | 231° |
| 2026-04-22 06:30 | -34.94177 | 150.15067 | 28088 ft | 442 kts | 231° |
| 2026-04-22 06:30 | -34.95953 | 150.12067 | 28485 ft | 441 kts | 231° |
| 2026-04-22 06:30 | -34.97753 | 150.09028 | 28914 ft | 440 kts | 231° |
| 2026-04-22 06:31 | -34.99540 | 150.06013 | 29368 ft | 438 kts | 231° |
| 2026-04-22 06:31 | -35.01322 | 150.03005 | 29815 ft | 436 kts | 232° |
| 2026-04-22 06:31 | -35.03094 | 150.00007 | 30220 ft | 435 kts | 232° |
| 2026-04-22 06:31 | -35.04860 | 149.97017 | 30596 ft | 434 kts | 232° |
| 2026-04-22 06:32 | -35.06623 | 149.94031 | 30934 ft | 432 kts | 232° |
| 2026-04-22 06:32 | -35.08377 | 149.91057 | 31290 ft | 431 kts | 232° |
| 2026-04-22 06:32 | -35.10124 | 149.88095 | 31642 ft | 429 kts | 232° |
| 2026-04-22 06:32 | -35.11866 | 149.85141 | 31999 ft | 427 kts | 232° |
| 2026-04-22 06:33 | -35.13598 | 149.82204 | 32357 ft | 425 kts | 232° |
| 2026-04-22 06:33 | -35.15325 | 149.79269 | 32707 ft | 424 kts | 232° |
| 2026-04-22 06:33 | -35.17038 | 149.76345 | 33041 ft | 422 kts | 232° |
| 2026-04-22 06:33 | -35.18745 | 149.73433 | 33353 ft | 421 kts | 233° |
| 2026-04-22 06:34 | -35.20434 | 149.70555 | 33661 ft | 420 kts | 233° |
| 2026-04-22 06:34 | -35.22132 | 149.67659 | 33961 ft | 418 kts | 233° |
| 2026-04-22 06:34 | -35.23824 | 149.64768 | 34254 ft | 417 kts | 233° |
| 2026-04-22 06:34 | -35.25508 | 149.61885 | 34386 ft | 417 kts | 233° |
| 2026-04-22 06:35 | -35.27197 | 149.58994 | 34399 ft | 417 kts | 233° |
| 2026-04-22 06:35 | -35.30574 | 149.53223 | 34383 ft | 417 kts | 233° |
| 2026-04-22 06:36 | -35.33945 | 149.47446 | 34382 ft | 417 kts | 233° |
| 2026-04-22 06:36 | -35.37311 | 149.41661 | 34387 ft | 417 kts | 233° |
| 2026-04-22 06:37 | -35.40674 | 149.35865 | 34386 ft | 418 kts | 233° |
| 2026-04-22 06:37 | -35.44043 | 149.30048 | 34395 ft | 418 kts | 233° |
| 2026-04-22 06:38 | -35.47412 | 149.24233 | 34391 ft | 418 kts | 233° |
| 2026-04-22 06:38 | -35.50760 | 149.18445 | 34382 ft | 418 kts | 233° |
| 2026-04-22 06:39 | -35.54127 | 149.12613 | 34376 ft | 419 kts | 233° |
| 2026-04-22 06:39 | -35.57495 | 149.06761 | 34366 ft | 419 kts | 233° |
| 2026-04-22 06:40 | -35.60867 | 149.00895 | 34353 ft | 420 kts | 233° |
| 2026-04-22 06:40 | -35.64238 | 148.95023 | 34346 ft | 420 kts | 233° |
| 2026-04-22 06:41 | -35.67611 | 148.89144 | 34351 ft | 421 kts | 234° |
| 2026-04-22 06:41 | -35.70985 | 148.83246 | 34358 ft | 421 kts | 234° |
| 2026-04-22 06:42 | -35.74329 | 148.77387 | 34358 ft | 421 kts | 234° |
| 2026-04-22 06:42 | -35.77694 | 148.71471 | 34354 ft | 422 kts | 234° |
| 2026-04-22 06:43 | -35.81068 | 148.65545 | 34352 ft | 422 kts | 234° |
| 2026-04-22 06:43 | -35.84437 | 148.59612 | 34353 ft | 423 kts | 234° |
| 2026-04-22 06:44 | -35.87817 | 148.53661 | 34349 ft | 424 kts | 234° |
| 2026-04-22 06:44 | -35.91182 | 148.47693 | 34350 ft | 424 kts | 234° |
| 2026-04-22 06:45 | -35.94551 | 148.41710 | 34346 ft | 425 kts | 234° |
| 2026-04-22 06:45 | -35.97904 | 148.35747 | 34345 ft | 425 kts | 234° |
| 2026-04-22 06:46 | -36.01280 | 148.29746 | 34346 ft | 426 kts | 234° |
| 2026-04-22 06:46 | -36.04658 | 148.23726 | 34344 ft | 426 kts | 235° |
| 2026-04-22 06:47 | -36.08031 | 148.17690 | 34338 ft | 427 kts | 235° |
| 2026-04-22 06:47 | -36.11407 | 148.11632 | 34334 ft | 427 kts | 235° |
| 2026-04-22 06:48 | -36.14785 | 148.05583 | 34333 ft | 428 kts | 235° |
| 2026-04-22 06:48 | -36.18178 | 147.99519 | 34331 ft | 429 kts | 235° |
| 2026-04-22 06:49 | -36.21574 | 147.93441 | 34332 ft | 429 kts | 235° |
| 2026-04-22 06:49 | -36.24962 | 147.87354 | 34332 ft | 429 kts | 235° |
| 2026-04-22 06:50 | -36.28348 | 147.81255 | 34333 ft | 430 kts | 235° |
| 2026-04-22 06:50 | -36.31714 | 147.75182 | 34333 ft | 431 kts | 236° |
| 2026-04-22 06:51 | -36.35110 | 147.69048 | 34337 ft | 431 kts | 236° |
| 2026-04-22 06:51 | -36.38495 | 147.62911 | 34335 ft | 431 kts | 236° |
| 2026-04-22 06:52 | -36.41882 | 147.56764 | 34339 ft | 432 kts | 236° |
| 2026-04-22 06:52 | -36.45271 | 147.50602 | 34335 ft | 432 kts | 236° |
| 2026-04-22 06:53 | -36.48653 | 147.44438 | 34330 ft | 432 kts | 236° |
| 2026-04-22 06:53 | -36.52041 | 147.38254 | 34335 ft | 432 kts | 236° |
| 2026-04-22 06:54 | -36.55429 | 147.32058 | 34331 ft | 432 kts | 236° |
| 2026-04-22 06:54 | -36.58789 | 147.25906 | 34337 ft | 433 kts | 236° |
| 2026-04-22 06:55 | -36.62160 | 147.19687 | 34334 ft | 433 kts | 237° |
| 2026-04-22 06:55 | -36.65536 | 147.13462 | 34339 ft | 434 kts | 237° |
| 2026-04-22 06:56 | -36.68920 | 147.07240 | 34339 ft | 434 kts | 237° |
| 2026-04-22 06:56 | -36.72302 | 147.01005 | 34341 ft | 434 kts | 237° |
| 2026-04-22 06:57 | -36.75675 | 146.94752 | 34344 ft | 435 kts | 237° |
| 2026-04-22 06:57 | -36.79049 | 146.88497 | 34342 ft | 435 kts | 237° |
| 2026-04-22 06:58 | -36.82427 | 146.82233 | 34344 ft | 435 kts | 237° |
| 2026-04-22 06:58 | -36.85787 | 146.75970 | 34346 ft | 436 kts | 237° |
| 2026-04-22 06:59 | -36.89167 | 146.69669 | 34349 ft | 436 kts | 237° |
| 2026-04-22 06:59 | -36.92540 | 146.63366 | 34350 ft | 436 kts | 237° |
| 2026-04-22 07:00 | -36.95884 | 146.57122 | 34336 ft | 425 kts | 237° |
| 2026-04-22 07:00 | -36.97513 | 146.54070 | 33837 ft | 420 kts | 237° |
| 2026-04-22 07:00 | -36.99130 | 146.51035 | 33136 ft | 419 kts | 237° |
| 2026-04-22 07:00 | -37.00743 | 146.48002 | 32417 ft | 419 kts | 237° |
| 2026-04-22 07:01 | -37.02357 | 146.44964 | 31724 ft | 420 kts | 237° |
| 2026-04-22 07:01 | -37.03978 | 146.41915 | 31063 ft | 421 kts | 237° |
| 2026-04-22 07:01 | -37.05599 | 146.38865 | 30422 ft | 421 kts | 237° |
| 2026-04-22 07:01 | -37.07222 | 146.35803 | 29620 ft | 423 kts | 237° |
| 2026-04-22 07:02 | -37.08830 | 146.32771 | 28833 ft | 424 kts | 237° |
| 2026-04-22 07:02 | -37.10465 | 146.29686 | 28064 ft | 425 kts | 237° |
| 2026-04-22 07:02 | -37.12096 | 146.26603 | 27294 ft | 427 kts | 237° |
| 2026-04-22 07:02 | -37.13750 | 146.23480 | 26528 ft | 431 kts | 237° |
| 2026-04-22 07:03 | -37.15408 | 146.20346 | 25833 ft | 431 kts | 237° |
| 2026-04-22 07:03 | -37.17060 | 146.17215 | 25173 ft | 429 kts | 237° |
| 2026-04-22 07:03 | -37.18716 | 146.14074 | 24559 ft | 442 kts | 237° |
| 2026-04-22 07:03 | -37.20415 | 146.10846 | 23905 ft | 441 kts | 237° |
| 2026-04-22 07:04 | -37.22103 | 146.07644 | 23124 ft | 438 kts | 237° |
| 2026-04-22 07:04 | -37.23779 | 146.04470 | 22342 ft | 436 kts | 237° |
| 2026-04-22 07:04 | -37.25453 | 146.01290 | 21587 ft | 436 kts | 237° |
| 2026-04-22 07:04 | -37.27121 | 145.98109 | 20870 ft | 434 kts | 237° |
| 2026-04-22 07:05 | -37.28755 | 145.94984 | 20196 ft | 432 kts | 237° |
| 2026-04-22 07:05 | -37.30398 | 145.91850 | 19528 ft | 429 kts | 237° |
| 2026-04-22 07:05 | -37.32041 | 145.88720 | 18896 ft | 427 kts | 237° |
| 2026-04-22 07:05 | -37.33675 | 145.85612 | 18229 ft | 425 kts | 237° |
| 2026-04-22 07:06 | -37.35299 | 145.82520 | 17548 ft | 423 kts | 237° |
| 2026-04-22 07:06 | -37.36369 | 145.80478 | 17108 ft | 421 kts | 237° |
| 2026-04-22 07:06 | -37.38271 | 145.76847 | 16342 ft | 419 kts | 237° |
| 2026-04-22 07:06 | -37.39867 | 145.73794 | 15729 ft | 416 kts | 237° |
| 2026-04-22 07:07 | -37.41452 | 145.70756 | 15135 ft | 414 kts | 237° |
| 2026-04-22 07:07 | -37.43029 | 145.67737 | 14524 ft | 412 kts | 237° |
| 2026-04-22 07:07 | -37.44601 | 145.64726 | 13894 ft | 411 kts | 237° |
| 2026-04-22 07:07 | -37.46223 | 145.61834 | 13256 ft | 406 kts | 234° |
| 2026-04-22 07:08 | -37.47877 | 145.58992 | 12633 ft | 400 kts | 234° |
| 2026-04-22 07:08 | -37.49508 | 145.56192 | 12059 ft | 391 kts | 234° |
| 2026-04-22 07:08 | -37.51076 | 145.53496 | 11639 ft | 371 kts | 234° |
| 2026-04-22 07:08 | -37.52563 | 145.50939 | 11327 ft | 352 kts | 233° |
| 2026-04-22 07:09 | -37.53974 | 145.48507 | 11007 ft | 335 kts | 233° |
| 2026-04-22 07:09 | -37.55317 | 145.46194 | 10675 ft | 321 kts | 233° |
| 2026-04-22 07:09 | -37.56603 | 145.43976 | 10379 ft | 308 kts | 233° |
| 2026-04-22 07:09 | -37.57842 | 145.41835 | 10243 ft | 296 kts | 233° |
| 2026-04-22 07:10 | -37.59047 | 145.39753 | 10001 ft | 292 kts | 233° |
| 2026-04-22 07:10 | -37.60247 | 145.37682 | 9669 ft | 292 kts | 233° |
| 2026-04-22 07:10 | -37.61443 | 145.35612 | 9345 ft | 292 kts | 233° |
| 2026-04-22 07:10 | -37.62636 | 145.33548 | 9012 ft | 291 kts | 233° |
| 2026-04-22 07:11 | -37.63827 | 145.31486 | 8681 ft | 289 kts | 232° |
| 2026-04-22 07:11 | -37.65001 | 145.29449 | 8349 ft | 285 kts | 233° |
| 2026-04-22 07:11 | -37.66168 | 145.27426 | 8030 ft | 285 kts | 232° |
| 2026-04-22 07:11 | -37.67318 | 145.25435 | 7732 ft | 284 kts | 232° |
| 2026-04-22 07:12 | -37.68479 | 145.23420 | 7436 ft | 283 kts | 232° |
| 2026-04-22 07:12 | -37.69632 | 145.21413 | 7122 ft | 280 kts | 232° |
| 2026-04-22 07:12 | -37.70770 | 145.19428 | 6808 ft | 277 kts | 232° |
| 2026-04-22 07:12 | -37.71897 | 145.17471 | 6495 ft | 274 kts | 232° |
| 2026-04-22 07:13 | -37.72509 | 145.16410 | 6370 ft | 270 kts | 232° |
| 2026-04-22 07:13 | -37.73574 | 145.14557 | 6163 ft | 261 kts | 233° |
| 2026-04-22 07:13 | -37.74618 | 145.12728 | 5988 ft | 252 kts | 233° |
| 2026-04-22 07:13 | -37.75629 | 145.10956 | 5759 ft | 246 kts | 233° |
| 2026-04-22 07:14 | -37.76640 | 145.09196 | 5448 ft | 247 kts | 233° |
| 2026-04-22 07:14 | -37.77307 | 145.08037 | 5250 ft | 245 kts | 233° |
| 2026-04-22 07:14 | -37.78631 | 145.05729 | 4917 ft | 236 kts | 233° |
| 2026-04-22 07:14 | -37.79577 | 145.04080 | 4655 ft | 230 kts | 234° |
| 2026-04-22 07:15 | -37.80520 | 145.02435 | 4343 ft | 231 kts | 234° |
| 2026-04-22 07:15 | -37.81120 | 145.01332 | 4145 ft | 230 kts | 239° |
| 2026-04-22 07:15 | -37.81802 | 144.98835 | 3849 ft | 219 kts | 258° |
| 2026-04-22 07:15 | -37.82005 | 144.97608 | 3728 ft | 210 kts | 258° |
| 2026-04-22 07:16 | -37.82287 | 144.95869 | 3657 ft | 194 kts | 258° |
| 2026-04-22 07:16 | -37.82554 | 144.94259 | 3473 ft | 182 kts | 258° |
| 2026-04-22 07:16 | -37.82758 | 144.92674 | 3312 ft | 183 kts | 262° |
| 2026-04-22 07:16 | -37.82944 | 144.91075 | 3324 ft | 185 kts | 262° |
| 2026-04-22 07:17 | -37.83139 | 144.89471 | 3349 ft | 183 kts | 262° |
| 2026-04-22 07:17 | -37.83084 | 144.87878 | 3339 ft | 185 kts | 290° |
| 2026-04-22 07:17 | -37.82251 | 144.86672 | 3217 ft | 187 kts | 332° |
| 2026-04-22 07:17 | -37.80986 | 144.86320 | 2970 ft | 187 kts | 352° |
| 2026-04-22 07:18 | -37.79698 | 144.86139 | 2695 ft | 184 kts | 351° |
| 2026-04-22 07:18 | -37.78459 | 144.85933 | 2420 ft | 175 kts | 351° |
| 2026-04-22 07:18 | -37.77308 | 144.85729 | 2190 ft | 164 kts | 351° |
| 2026-04-22 07:18 | -37.76213 | 144.85528 | 1960 ft | 156 kts | 351° |
| 2026-04-22 07:19 | -37.75164 | 144.85330 | 1730 ft | 148 kts | 353° |
| 2026-04-22 07:19 | -37.74168 | 144.85147 | 1544 ft | 143 kts | 352° |
| 2026-04-22 07:19 | -37.73188 | 144.84960 | 1337 ft | 142 kts | 352° |
| 2026-04-22 07:19 | -37.72218 | 144.84783 | 1128 ft | 142 kts | 354° |
| 2026-04-22 07:20 | -37.71248 | 144.84604 | 930 ft | 141 kts | 354° |
| 2026-04-22 07:20 | -37.70284 | 144.84410 | 756 ft | 141 kts | 354° |
| 2026-04-22 07:20 | -37.69312 | 144.84236 | 582 ft | 138 kts | 354° |
| 2026-04-22 07:20 | -37.68362 | 144.84056 | 368 ft | 138 kts | 354° |
| 2026-04-22 07:21 | -37.67578 | 144.83913 | 370 ft | 104 kts | 351° |
| 2026-04-22 07:21 | -37.67143 | 144.83835 | 387 ft | 37 kts | 355° |
| 2026-04-22 07:21 | -37.66988 | 144.83847 | 391 ft | 19 kts | 12° |
| 2026-04-22 07:21 | -37.66863 | 144.83903 | 395 ft | 20 kts | 21° |
| 2026-04-22 07:22 | -37.66781 | 144.83943 | 396 ft | 7 kts | 21° |
| 2026-04-22 07:22 | -37.66733 | 144.83998 | 397 ft | 11 kts | 59° |
| 2026-04-22 07:22 | -37.66722 | 144.84109 | 394 ft | 15 kts | 106° |
| 2026-04-22 07:22 | -37.66801 | 144.84195 | 396 ft | 17 kts | 165° |
| 2026-04-22 07:23 | -37.66921 | 144.84217 | 393 ft | 18 kts | 172° |
| 2026-04-22 07:23 | -37.66995 | 144.84230 | 391 ft | 10 kts | 171° |
| 2026-04-22 07:23 | -37.67055 | 144.84286 | 391 ft | 13 kts | 103° |
| 2026-04-22 07:23 | -37.67046 | 144.84410 | 393 ft | 15 kts | 79° |
| 2026-04-22 07:24 | -37.67018 | 144.84499 | 391 ft | 12 kts | 78° |
| 2026-04-22 07:24 | -37.67009 | 144.84598 | 395 ft | 8 kts | 82° |
| 2026-04-22 07:24 | -37.67003 | 144.84661 | 395 ft | 2 kts | 86° |
| 2026-04-22 07:24 | -37.67008 | 144.84692 | 394 ft | 6 kts | 112° |
| 2026-04-22 07:25 | -37.67032 | 144.84718 | 396 ft | 6 kts | 171° |
| 2026-04-22 07:25 | -37.67054 | 144.84723 | 397 ft | 0 kts | 171° |
| 2026-04-22 07:25 | -37.67055 | 144.84723 | 397 ft | 0 kts | 171° |